• Join FlightAware (Why Join?)
  • Login
  • US Flag 
10:34AM EDT


 

Airport Tracker/Info


-or-


 

Live Flight TrackerFlight Track Log ✈ UAL4843 ✈ 22-Apr-2013 ✈ KBDL - KEWR

Flight Track Log - Related Links

Times and Time Zones

All times are in EDT time to prevent confusion due to time zone crossing. See the UAL4843 flight status page for this flight to view local times or setup timezone preferences in your user account.

Time Position Orientation Groundspeed Altitude Reporting Facility
EDT Latitude Longitude Course Direction KTS MPH feet Rate Location/Type
10:27AM 41.9353 -72.7108 82° East 57 66 200  Level Boston Center
10:29AM 41.8628 -72.7981 222° Southwest  Level Estimated
10:36AM 41.5512 -73.1697 222° Southwest  Level Estimated
10:37AM 41.5066 -73.2225 222° Southwest  Level Estimated
10:37AM 41.9458 -72.6103 90° East 150 173 3,500  Level Boston Center
10:38AM 41.4620 -73.2752 222° Southwest  Level Estimated
10:38AM 41.8958 -72.5964 168° South 195 224 4,300  Level Boston Center
10:39AM 41.4173 -73.3278 221° Southwest  Level Estimated
10:39AM 41.8583 -72.6547 229° Southwest 208 239 5,900  Level Boston Center
10:40AM 41.3727 -73.3804 221° Southwest  Level Estimated
10:40AM 41.8269 -72.7242 239° Southwest 227 261 6,000  Level Boston Center
10:41AM 41.3280 -73.4329 221° Southwest  Level Estimated
10:41AM 41.7850 -72.8075 236° Southwest 251 289 6,000  Level Boston Center
10:42AM 41.7328 -72.8631 218° Southwest 248 285 6,000  Level Boston Center
10:44AM 41.5833 -72.9000 190° South 237 273 6,000  Level New York TRACON
10:46AM 41.5167 -72.9167 191° South 235 270 6,000  Level New York TRACON
10:47AM 41.4833 -73.0000 242° Southwest 252 290 6,000  Level New York TRACON
10:47AM 41.4500 -73.0833 242° Southwest 256 295 6,000  Level New York TRACON
10:49AM 41.4167 -73.1833 246° West 256 295 6,000  Level New York TRACON
10:50AM 41.4000 -73.2500 252° West 252 290 6,000  Level New York TRACON
10:51AM 41.3667 -73.3500 246° West 255 293 6,000  Level New York TRACON
10:52AM 41.3333 -73.4333 242° Southwest 255 293 6,000  Level New York TRACON
10:53AM 41.3000 -73.5167 242° Southwest 255 293 6,000  Level New York TRACON
10:54AM 41.2833 -73.6000 255° West 254 292 6,000  Level New York TRACON
10:55AM 41.2667 -73.7000 258° West 257 296 6,000 -180 Level New York TRACON
10:56AM 41.2667 -73.7833 270° West 261 300 5,700 -540 Descending New York TRACON
10:57AM 41.2500 -73.8833 258° West 266 306 5,000 -360 Descending New York TRACON
10:58AM 41.2500 -73.9833 270° West 252 290 5,000  Level New York TRACON
10:59AM 41.2333 -74.0667 255° West 249 287 5,000  Level New York TRACON
11:00AM 41.2167 -74.1667 258° West 249 287 5,100  Climbing New York TRACON
11:01AM 41.2000 -74.2500 255° West 261 300 5,000  Descending New York TRACON
11:02AM 41.2167 -74.3333 285° West 252 290 5,100  Climbing New York TRACON
11:03AM 41.2167 -74.4333 270° West 258 297 5,000 -60 Descending New York TRACON
11:04AM 41.1833 -74.4833 228° Southwest 242 278 5,000  Level New York TRACON
11:05AM 41.1333 -74.5333 217° Southwest 236 272 5,100  Climbing New York TRACON
11:06AM 41.0500 -74.5500 189° South 227 261 5,100  Level New York TRACON
11:07AM 41.0000 -74.5500 180° South 226 260 5,100  Level New York TRACON
11:08AM 40.9333 -74.5667 191° South 228 262 5,100 -60 Level New York TRACON
11:09AM 40.8833 -74.5667 180° South 225 259 5,000  Descending New York TRACON
11:10AM 40.8000 -74.5667 180° South 223 257 5,100  Climbing New York TRACON
11:11AM 40.7500 -74.5667 180° South 222 255 5,100  Level New York TRACON
11:12AM 40.6833 -74.5833 191° South 228 262 5,100  Level New York TRACON
11:13AM 40.6167 -74.5833 180° South 229 264 5,100  Level New York TRACON
11:14AM 40.5500 -74.5833 180° South 229 264 5,100 -60 Level New York TRACON
11:15AM 40.5000 -74.5833 180° South 219 252 5,000 -420 Descending New York TRACON
11:17AM 40.5578 -74.4593 58° Northeast  Level Estimated
11:19AM 40.3833 -74.4167 59° Northeast 158 182 3,100  Level New York TRACON
11:20AM 40.4000 -74.3833 57° Northeast 153 176 3,100  Level New York TRACON
11:21AM 40.4333 -74.3333 49° Northeast 159 183 3,100  Level New York TRACON
11:22AM 40.4667 -74.3000 37° Northeast 171 197 3,100  Level New York TRACON
11:23AM 40.5167 -74.2833 14° North 161 185 3,100  Level New York TRACON
11:24AM 40.6925 -74.1687 59° Northeast  Level Estimated